sensor_id;sensor_type;location;lat;lon;timestamp;pressure;altitude;pressure_sealevel;temperature;humidity
22755;BME280;11544;42.020;23.094;2022-09-09T00:02:05;97362.56;;;18.86;94.56
22755;BME280;11544;42.020;23.094;2022-09-09T00:04:37;97361.13;;;18.95;93.40
22755;BME280;11544;42.020;23.094;2022-09-09T00:07:10;97360.16;;;18.96;93.28
22755;BME280;11544;42.020;23.094;2022-09-09T00:21:08;97349.81;;;18.93;93.13
22755;BME280;11544;42.020;23.094;2022-09-09T00:27:00;97360.19;;;18.69;95.53
22755;BME280;11544;42.020;23.094;2022-09-09T00:29:32;97353.91;;;18.84;94.62
22755;BME280;11544;42.020;23.094;2022-09-09T00:32:17;97361.59;;;18.87;95.11
22755;BME280;11544;42.020;23.094;2022-09-09T00:37:35;97352.16;;;18.97;94.31
22755;BME280;11544;42.020;23.094;2022-09-09T00:40:17;97346.22;;;18.94;93.71
22755;BME280;11544;42.020;23.094;2022-09-09T00:42:44;97341.50;;;18.72;93.86
22755;BME280;11544;42.020;23.094;2022-09-09T00:47:53;97340.75;;;18.70;95.20
22755;BME280;11544;42.020;23.094;2022-09-09T00:50:31;97344.34;;;18.69;95.15
22755;BME280;11544;42.020;23.094;2022-09-09T00:55:50;97343.28;;;18.71;93.81
22755;BME280;11544;42.020;23.094;2022-09-09T00:58:19;97347.03;;;18.81;92.95
22755;BME280;11544;42.020;23.094;2022-09-09T01:01:04;97346.34;;;18.92;92.12
22755;BME280;11544;42.020;23.094;2022-09-09T01:03:38;97349.19;;;18.75;93.15
22755;BME280;11544;42.020;23.094;2022-09-09T01:06:21;97344.19;;;18.85;92.29
22755;BME280;11544;42.020;23.094;2022-09-09T01:11:59;97346.34;;;18.92;94.73
22755;BME280;11544;42.020;23.094;2022-09-09T01:17:22;97357.69;;;18.80;94.15
22755;BME280;11544;42.020;23.094;2022-09-09T01:25:56;97370.91;;;18.66;95.87
22755;BME280;11544;42.020;23.094;2022-09-09T01:28:32;97373.81;;;18.48;96.57
22755;BME280;11544;42.020;23.094;2022-09-09T01:31:06;97378.44;;;18.45;96.60
22755;BME280;11544;42.020;23.094;2022-09-09T01:33:41;97365.72;;;18.78;93.54
22755;BME280;11544;42.020;23.094;2022-09-09T01:36:15;97365.44;;;18.83;93.64
22755;BME280;11544;42.020;23.094;2022-09-09T01:38:48;97363.44;;;18.72;92.19
22755;BME280;11544;42.020;23.094;2022-09-09T01:41:15;97367.72;;;18.48;94.18
22755;BME280;11544;42.020;23.094;2022-09-09T01:43:47;97362.25;;;18.63;92.56
22755;BME280;11544;42.020;23.094;2022-09-09T01:46:13;97361.47;;;18.76;92.59
22755;BME280;11544;42.020;23.094;2022-09-09T01:48:41;97362.06;;;18.39;94.92
22755;BME280;11544;42.020;23.094;2022-09-09T01:51:09;97362.16;;;18.65;94.01
22755;BME280;11544;42.020;23.094;2022-09-09T01:53:41;97357.03;;;18.49;94.20
22755;BME280;11544;42.020;23.094;2022-09-09T02:07:00;97363.47;;;18.04;98.31
22755;BME280;11544;42.020;23.094;2022-09-09T02:09:30;97358.56;;;18.12;97.43
22755;BME280;11544;42.020;23.094;2022-09-09T02:12:06;97352.84;;;18.32;96.41
22755;BME280;11544;42.020;23.094;2022-09-09T02:14:49;97353.91;;;18.30;96.16
22755;BME280;11544;42.020;23.094;2022-09-09T02:17:26;97361.38;;;18.09;96.51
22755;BME280;11544;42.020;23.094;2022-09-09T02:20:11;97353.00;;;18.44;96.48
22755;BME280;11544;42.020;23.094;2022-09-09T02:22:50;97356.06;;;18.23;95.60
22755;BME280;11544;42.020;23.094;2022-09-09T02:25:20;97346.19;;;18.27;95.70
22755;BME280;11544;42.020;23.094;2022-09-09T02:27:50;97343.28;;;18.17;95.73
22755;BME280;11544;42.020;23.094;2022-09-09T02:30:18;97339.47;;;18.35;96.34
22755;BME280;11544;42.020;23.094;2022-09-09T02:32:56;97344.19;;;18.30;96.96
22755;BME280;11544;42.020;23.094;2022-09-09T02:35:37;97351.75;;;18.22;97.47
22755;BME280;11544;42.020;23.094;2022-09-09T02:38:06;97359.53;;;17.96;99.21
22755;BME280;11544;42.020;23.094;2022-09-09T02:40:34;97345.00;;;18.04;97.69
22755;BME280;11544;42.020;23.094;2022-09-09T02:43:02;97356.28;;;18.20;98.36
22755;BME280;11544;42.020;23.094;2022-09-09T02:45:42;97363.84;;;17.97;100.00
22755;BME280;11544;42.020;23.094;2022-09-09T02:48:32;97370.44;;;17.90;100.00
22755;BME280;11544;42.020;23.094;2022-09-09T02:51:16;97372.72;;;17.96;100.00
22755;BME280;11544;42.020;23.094;2022-09-09T02:54:10;97371.41;;;17.89;100.00
22755;BME280;11544;42.020;23.094;2022-09-09T02:56:42;97364.44;;;17.88;100.00
22755;BME280;11544;42.020;23.094;2022-09-09T02:59:10;97362.34;;;18.08;100.00
22755;BME280;11544;42.020;23.094;2022-09-09T03:01:37;97362.44;;;17.77;100.00
22755;BME280;11544;42.020;23.094;2022-09-09T03:04:06;97361.59;;;17.77;100.00
22755;BME280;11544;42.020;23.094;2022-09-09T03:06:31;97351.22;;;18.17;100.00
22755;BME280;11544;42.020;23.094;2022-09-09T03:09:06;97343.34;;;18.03;100.00
22755;BME280;11544;42.020;23.094;2022-09-09T03:11:33;97352.38;;;17.55;100.00
22755;BME280;11544;42.020;23.094;2022-09-09T03:14:00;97360.94;;;17.73;100.00
22755;BME280;11544;42.020;23.094;2022-09-09T03:16:29;97363.50;;;17.89;100.00
22755;BME280;11544;42.020;23.094;2022-09-09T03:18:55;97365.06;;;18.06;100.00
22755;BME280;11544;42.020;23.094;2022-09-09T03:21:21;97375.06;;;17.72;100.00
22755;BME280;11544;42.020;23.094;2022-09-09T03:23:50;97382.25;;;17.85;100.00
22755;BME280;11544;42.020;23.094;2022-09-09T03:26:16;97376.97;;;17.85;100.00
22755;BME280;11544;42.020;23.094;2022-09-09T03:28:45;97363.28;;;17.92;100.00
22755;BME280;11544;42.020;23.094;2022-09-09T03:31:13;97348.81;;;17.85;100.00
22755;BME280;11544;42.020;23.094;2022-09-09T03:33:40;97355.66;;;17.45;100.00
22755;BME280;11544;42.020;23.094;2022-09-09T03:36:09;97372.63;;;16.96;100.00
22755;BME280;11544;42.020;23.094;2022-09-09T03:38:36;97375.59;;;17.20;100.00
22755;BME280;11544;42.020;23.094;2022-09-09T03:41:02;97365.16;;;17.47;100.00
22755;BME280;11544;42.020;23.094;2022-09-09T03:43:29;97374.44;;;17.24;100.00
22755;BME280;11544;42.020;23.094;2022-09-09T03:45:55;97374.44;;;17.24;100.00
22755;BME280;11544;42.020;23.094;2022-09-09T03:48:24;97383.03;;;17.28;100.00
22755;BME280;11544;42.020;23.094;2022-09-09T03:50:53;97379.53;;;17.13;100.00
22755;BME280;11544;42.020;23.094;2022-09-09T03:53:21;97376.03;;;17.12;100.00
22755;BME280;11544;42.020;23.094;2022-09-09T03:55:50;97375.31;;;17.25;100.00
22755;BME280;11544;42.020;23.094;2022-09-09T03:58:18;97384.38;;;17.05;100.00
22755;BME280;11544;42.020;23.094;2022-09-09T04:01:11;97390.25;;;17.24;100.00
22755;BME280;11544;42.020;23.094;2022-09-09T04:03:42;97399.06;;;17.09;100.00
22755;BME280;11544;42.020;23.094;2022-09-09T04:06:09;97402.94;;;17.03;100.00
22755;BME280;11544;42.020;23.094;2022-09-09T04:08:36;97413.63;;;17.00;100.00
22755;BME280;11544;42.020;23.094;2022-09-09T04:11:04;97414.31;;;17.04;100.00
22755;BME280;11544;42.020;23.094;2022-09-09T04:13:34;97420.78;;;17.12;100.00
22755;BME280;11544;42.020;23.094;2022-09-09T04:16:01;97408.81;;;17.23;100.00
22755;BME280;11544;42.020;23.094;2022-09-09T04:18:29;97404.91;;;17.14;100.00
22755;BME280;11544;42.020;23.094;2022-09-09T04:20:56;97422.38;;;17.45;100.00
22755;BME280;11544;42.020;23.094;2022-09-09T04:23:27;97428.34;;;17.19;100.00
22755;BME280;11544;42.020;23.094;2022-09-09T04:25:57;97422.53;;;17.28;100.00
22755;BME280;11544;42.020;23.094;2022-09-09T04:28:25;97424.34;;;17.27;100.00
22755;BME280;11544;42.020;23.094;2022-09-09T04:30:52;97416.16;;;17.32;100.00
22755;BME280;11544;42.020;23.094;2022-09-09T04:33:19;97417.75;;;17.20;100.00
22755;BME280;11544;42.020;23.094;2022-09-09T04:35:46;97428.66;;;16.98;100.00
22755;BME280;11544;42.020;23.094;2022-09-09T04:38:15;97433.91;;;16.98;100.00
22755;BME280;11544;42.020;23.094;2022-09-09T04:40:47;97438.78;;;17.50;100.00
22755;BME280;11544;42.020;23.094;2022-09-09T04:43:13;97433.69;;;17.17;100.00
22755;BME280;11544;42.020;23.094;2022-09-09T04:45:46;97441.25;;;17.23;100.00
22755;BME280;11544;42.020;23.094;2022-09-09T04:48:12;97446.81;;;17.03;100.00
22755;BME280;11544;42.020;23.094;2022-09-09T04:50:38;97442.78;;;16.97;100.00
22755;BME280;11544;42.020;23.094;2022-09-09T04:53:04;97428.13;;;17.07;100.00
22755;BME280;11544;42.020;23.094;2022-09-09T04:55:32;97426.81;;;17.59;100.00
22755;BME280;11544;42.020;23.094;2022-09-09T04:58:04;97415.63;;;17.55;100.00
22755;BME280;11544;42.020;23.094;2022-09-09T05:00:32;97411.50;;;17.66;100.00
22755;BME280;11544;42.020;23.094;2022-09-09T05:02:57;97419.38;;;17.51;100.00
22755;BME280;11544;42.020;23.094;2022-09-09T05:05:24;97421.44;;;17.46;100.00
22755;BME280;11544;42.020;23.094;2022-09-09T05:07:51;97411.00;;;17.73;100.00
22755;BME280;11544;42.020;23.094;2022-09-09T05:10:18;97393.72;;;18.12;100.00
22755;BME280;11544;42.020;23.094;2022-09-09T05:12:52;97385.78;;;18.12;100.00
22755;BME280;11544;42.020;23.094;2022-09-09T05:15:19;97373.13;;;18.32;100.00
22755;BME280;11544;42.020;23.094;2022-09-09T05:17:46;97374.75;;;18.20;100.00
22755;BME280;11544;42.020;23.094;2022-09-09T05:20:13;97376.50;;;18.61;100.00
22755;BME280;11544;42.020;23.094;2022-09-09T05:22:39;97367.53;;;18.36;100.00
22755;BME280;11544;42.020;23.094;2022-09-09T05:25:06;97374.75;;;18.47;100.00
22755;BME280;11544;42.020;23.094;2022-09-09T05:27:34;97382.50;;;18.77;100.00
22755;BME280;11544;42.020;23.094;2022-09-09T05:30:00;97381.19;;;19.76;100.00
22755;BME280;11544;42.020;23.094;2022-09-09T05:32:26;97383.88;;;19.49;99.47
22755;BME280;11544;42.020;23.094;2022-09-09T05:34:51;97376.16;;;19.07;100.00
22755;BME280;11544;42.020;23.094;2022-09-09T05:37:18;97373.41;;;19.09;100.00
22755;BME280;11544;42.020;23.094;2022-09-09T05:39:44;97357.44;;;19.49;100.00
22755;BME280;11544;42.020;23.094;2022-09-09T05:42:11;97349.84;;;19.18;100.00
22755;BME280;11544;42.020;23.094;2022-09-09T05:44:37;97363.38;;;19.27;100.00
22755;BME280;11544;42.020;23.094;2022-09-09T05:47:03;97347.88;;;20.10;100.00
22755;BME280;11544;42.020;23.094;2022-09-09T05:49:29;97346.84;;;20.00;97.15
22755;BME280;11544;42.020;23.094;2022-09-09T05:51:54;97369.94;;;19.34;100.00
22755;BME280;11544;42.020;23.094;2022-09-09T05:54:22;97358.53;;;20.58;94.92
22755;BME280;11544;42.020;23.094;2022-09-09T05:56:50;97360.38;;;20.08;95.90
22755;BME280;11544;42.020;23.094;2022-09-09T05:59:16;97370.88;;;20.70;94.28
22755;BME280;11544;42.020;23.094;2022-09-09T06:01:44;97376.19;;;19.58;95.86
22755;BME280;11544;42.020;23.094;2022-09-09T06:04:18;97372.91;;;21.02;92.90
22755;BME280;11544;42.020;23.094;2022-09-09T06:06:47;97351.75;;;21.94;84.52
22755;BME280;11544;42.020;23.094;2022-09-09T06:09:16;97351.16;;;22.02;81.44
22755;BME280;11544;42.020;23.094;2022-09-09T06:11:43;97352.31;;;22.20;80.01
22755;BME280;11544;42.020;23.094;2022-09-09T06:14:10;97375.16;;;20.60;88.28
22755;BME280;11544;42.020;23.094;2022-09-09T06:16:36;97350.53;;;21.87;82.47
22755;BME280;11544;42.020;23.094;2022-09-09T06:19:19;97346.06;;;22.32;79.99
22755;BME280;11544;42.020;23.094;2022-09-09T06:21:46;97348.22;;;22.71;77.49
22755;BME280;11544;42.020;23.094;2022-09-09T06:24:13;97338.94;;;22.22;79.31
22755;BME280;11544;42.020;23.094;2022-09-09T06:26:43;97325.19;;;22.16;79.49
22755;BME280;11544;42.020;23.094;2022-09-09T06:29:17;97325.91;;;22.62;79.03
22755;BME280;11544;42.020;23.094;2022-09-09T06:31:44;97319.25;;;22.89;75.47
22755;BME280;11544;42.020;23.094;2022-09-09T06:34:17;97325.56;;;21.55;81.57
22755;BME280;11544;42.020;23.094;2022-09-09T06:36:47;97312.09;;;23.00;76.14
22755;BME280;11544;42.020;23.094;2022-09-09T06:39:12;97325.91;;;22.18;78.87
22755;BME280;11544;42.020;23.094;2022-09-09T06:41:41;97314.97;;;23.81;72.13
22755;BME280;11544;42.020;23.094;2022-09-09T06:44:18;97309.63;;;24.41;68.95
22755;BME280;11544;42.020;23.094;2022-09-09T06:46:45;97308.88;;;24.00;69.97
22755;BME280;11544;42.020;23.094;2022-09-09T06:49:13;97302.50;;;24.61;66.77
22755;BME280;11544;42.020;23.094;2022-09-09T06:51:45;97303.63;;;24.98;65.68
22755;BME280;11544;42.020;23.094;2022-09-09T06:54:13;97301.09;;;25.25;63.90
22755;BME280;11544;42.020;23.094;2022-09-09T06:56:42;97307.53;;;25.23;63.65
22755;BME280;11544;42.020;23.094;2022-09-09T06:59:19;97297.44;;;25.26;65.00
22755;BME280;11544;42.020;23.094;2022-09-09T07:01:46;97301.97;;;25.63;62.59
22755;BME280;11544;42.020;23.094;2022-09-09T07:04:14;97290.72;;;25.60;62.61
22755;BME280;11544;42.020;23.094;2022-09-09T07:06:44;97284.72;;;25.48;62.30
22755;BME280;11544;42.020;23.094;2022-09-09T07:09:15;97287.78;;;24.86;64.78
22755;BME280;11544;42.020;23.094;2022-09-09T07:11:47;97286.19;;;25.32;63.82
22755;BME280;11544;42.020;23.094;2022-09-09T07:14:15;97276.16;;;25.82;62.72
22755;BME280;11544;42.020;23.094;2022-09-09T07:16:44;97274.44;;;25.25;63.83
22755;BME280;11544;42.020;23.094;2022-09-09T07:19:13;97267.34;;;25.34;64.42
22755;BME280;11544;42.020;23.094;2022-09-09T07:21:40;97265.34;;;25.46;64.58
22755;BME280;11544;42.020;23.094;2022-09-09T07:24:08;97274.31;;;24.98;66.16
22755;BME280;11544;42.020;23.094;2022-09-09T07:26:43;97264.09;;;25.77;62.42
22755;BME280;11544;42.020;23.094;2022-09-09T07:29:10;97259.53;;;25.32;63.07
22755;BME280;11544;42.020;23.094;2022-09-09T07:31:40;97269.28;;;24.65;68.05
22755;BME280;11544;42.020;23.094;2022-09-09T07:34:10;97258.44;;;24.96;65.65
22755;BME280;11544;42.020;23.094;2022-09-09T07:36:38;97254.81;;;24.97;65.51
22755;BME280;11544;42.020;23.094;2022-09-09T07:39:15;97258.94;;;26.04;63.22
22755;BME280;11544;42.020;23.094;2022-09-09T07:41:48;97253.88;;;26.01;61.84
22755;BME280;11544;42.020;23.094;2022-09-09T07:44:22;97241.53;;;26.71;60.48
22755;BME280;11544;42.020;23.094;2022-09-09T07:47:00;97250.50;;;27.24;60.10
22755;BME280;11544;42.020;23.094;2022-09-09T07:49:32;97249.69;;;26.88;59.98
22755;BME280;11544;42.020;23.094;2022-09-09T07:51:59;97248.28;;;26.75;59.08
22755;BME280;11544;42.020;23.094;2022-09-09T07:54:24;97246.03;;;26.89;58.11
22755;BME280;11544;42.020;23.094;2022-09-09T07:56:52;97244.50;;;26.50;59.74
22755;BME280;11544;42.020;23.094;2022-09-09T07:59:20;97250.19;;;26.29;60.56
22755;BME280;11544;42.020;23.094;2022-09-09T08:01:50;97240.16;;;26.31;61.17
22755;BME280;11544;42.020;23.094;2022-09-09T08:04:22;97242.47;;;27.06;60.42
22755;BME280;11544;42.020;23.094;2022-09-09T08:06:52;97243.66;;;27.98;58.82
22755;BME280;11544;42.020;23.094;2022-09-09T08:09:20;97245.47;;;26.77;60.36
22755;BME280;11544;42.020;23.094;2022-09-09T08:11:48;97238.53;;;27.36;58.97
22755;BME280;11544;42.020;23.094;2022-09-09T08:14:14;97237.34;;;28.24;55.29
22755;BME280;11544;42.020;23.094;2022-09-09T08:16:43;97234.22;;;28.86;54.52
22755;BME280;11544;42.020;23.094;2022-09-09T08:19:13;97235.75;;;28.80;54.36
22755;BME280;11544;42.020;23.094;2022-09-09T08:21:41;97234.41;;;28.52;54.58
22755;BME280;11544;42.020;23.094;2022-09-09T08:24:08;97234.63;;;28.16;55.64
22755;BME280;11544;42.020;23.094;2022-09-09T08:26:38;97237.03;;;27.76;53.15
22755;BME280;11544;42.020;23.094;2022-09-09T08:29:06;97239.00;;;27.14;52.56
22755;BME280;11544;42.020;23.094;2022-09-09T08:31:35;97232.22;;;27.45;51.01
22755;BME280;11544;42.020;23.094;2022-09-09T08:34:03;97235.41;;;27.83;48.24
22755;BME280;11544;42.020;23.094;2022-09-09T08:36:33;97231.50;;;28.28;47.27
22755;BME280;11544;42.020;23.094;2022-09-09T08:39:01;97238.03;;;28.26;46.95
22755;BME280;11544;42.020;23.094;2022-09-09T08:44:25;97219.84;;;28.70;47.41
22755;BME280;11544;42.020;23.094;2022-09-09T08:47:01;97224.97;;;28.39;46.68
22755;BME280;11544;42.020;23.094;2022-09-09T08:52:25;97229.00;;;28.43;46.15
22755;BME280;11544;42.020;23.094;2022-09-09T08:54:57;97212.41;;;29.05;45.43
22755;BME280;11544;42.020;23.094;2022-09-09T08:57:28;97229.63;;;28.13;44.89
22755;BME280;11544;42.020;23.094;2022-09-09T08:59:58;97215.94;;;27.81;45.89
22755;BME280;11544;42.020;23.094;2022-09-09T09:08:25;97215.13;;;28.48;45.87
22755;BME280;11544;42.020;23.094;2022-09-09T09:10:54;97214.09;;;28.98;44.23
22755;BME280;11544;42.020;23.094;2022-09-09T09:13:44;97212.28;;;28.66;45.78
22755;BME280;11544;42.020;23.094;2022-09-09T09:19:29;97212.56;;;28.38;45.73
22755;BME280;11544;42.020;23.094;2022-09-09T09:22:16;97213.94;;;28.42;46.71
22755;BME280;11544;42.020;23.094;2022-09-09T09:29:59;97216.09;;;28.31;46.83
22755;BME280;11544;42.020;23.094;2022-09-09T09:32:29;97207.41;;;28.86;46.19
22755;BME280;11544;42.020;23.094;2022-09-09T09:34:57;97194.13;;;29.17;45.64
22755;BME280;11544;42.020;23.094;2022-09-09T09:37:33;97196.16;;;28.33;47.53
22755;BME280;11544;42.020;23.094;2022-09-09T09:40:10;97199.00;;;27.73;49.30
22755;BME280;11544;42.020;23.094;2022-09-09T09:42:37;97194.41;;;27.49;49.22
22755;BME280;11544;42.020;23.094;2022-09-09T09:45:34;97192.59;;;27.23;48.67
22755;BME280;11544;42.020;23.094;2022-09-09T09:48:09;97192.56;;;27.15;49.48
22755;BME280;11544;42.020;23.094;2022-09-09T09:53:24;97180.38;;;27.55;48.24
22755;BME280;11544;42.020;23.094;2022-09-09T09:56:01;97177.94;;;27.78;48.28
22755;BME280;11544;42.020;23.094;2022-09-09T09:58:37;97176.25;;;27.77;48.86
22755;BME280;11544;42.020;23.094;2022-09-09T10:01:24;97178.59;;;27.72;48.89
22755;BME280;11544;42.020;23.094;2022-09-09T10:03:52;97178.50;;;27.47;49.88
22755;BME280;11544;42.020;23.094;2022-09-09T10:06:32;97175.19;;;27.61;48.54
22755;BME280;11544;42.020;23.094;2022-09-09T10:08:59;97183.41;;;27.60;49.39
22755;BME280;11544;42.020;23.094;2022-09-09T10:12:35;97175.84;;;27.98;48.52
22755;BME280;11544;42.020;23.094;2022-09-09T10:20:26;97179.38;;;28.06;48.76
22755;BME280;11544;42.020;23.094;2022-09-09T10:23:06;97179.03;;;28.01;49.54
22755;BME280;11544;42.020;23.094;2022-09-09T10:28:38;97182.22;;;28.05;49.73
22755;BME280;11544;42.020;23.094;2022-09-09T10:31:47;97183.53;;;27.50;50.46
22755;BME280;11544;42.020;23.094;2022-09-09T10:37:33;97189.75;;;27.59;50.68
22755;BME280;11544;42.020;23.094;2022-09-09T10:42:54;97175.75;;;27.73;51.08
22755;BME280;11544;42.020;23.094;2022-09-09T10:45:32;97178.38;;;27.99;50.85
22755;BME280;11544;42.020;23.094;2022-09-09T10:56:04;97179.50;;;27.89;51.38
22755;BME280;11544;42.020;23.094;2022-09-09T10:58:46;97183.34;;;27.86;51.17
22755;BME280;11544;42.020;23.094;2022-09-09T11:04:33;97179.56;;;28.29;49.93
22755;BME280;11544;42.020;23.094;2022-09-09T11:07:06;97180.41;;;28.30;50.70
22755;BME280;11544;42.020;23.094;2022-09-09T11:09:41;97180.22;;;28.07;50.15
22755;BME280;11544;42.020;23.094;2022-09-09T11:12:14;97171.03;;;28.34;49.38
22755;BME280;11544;42.020;23.094;2022-09-09T11:14:58;97179.03;;;28.18;50.02
22755;BME280;11544;42.020;23.094;2022-09-09T11:17:33;97176.19;;;28.27;50.67
22755;BME280;11544;42.020;23.094;2022-09-09T11:20:05;97189.75;;;28.18;51.47
22755;BME280;11544;42.020;23.094;2022-09-09T11:22:37;97190.22;;;27.97;51.98
22755;BME280;11544;42.020;23.094;2022-09-09T11:25:14;97175.66;;;27.83;52.62
22755;BME280;11544;42.020;23.094;2022-09-09T11:36:16;97153.94;;;28.02;51.75
22755;BME280;11544;42.020;23.094;2022-09-09T11:38:50;97152.25;;;28.18;52.03
22755;BME280;11544;42.020;23.094;2022-09-09T11:41:18;97147.28;;;28.47;50.59
22755;BME280;11544;42.020;23.094;2022-09-09T11:43:51;97147.22;;;28.39;50.23
22755;BME280;11544;42.020;23.094;2022-09-09T11:46:23;97141.88;;;28.39;50.88
22755;BME280;11544;42.020;23.094;2022-09-09T11:49:26;97142.91;;;28.30;51.84
22755;BME280;11544;42.020;23.094;2022-09-09T11:51:52;97142.72;;;28.23;51.45
22755;BME280;11544;42.020;23.094;2022-09-09T11:54:47;97142.03;;;28.13;52.51
22755;BME280;11544;42.020;23.094;2022-09-09T11:57:24;97142.06;;;28.21;51.42
22755;BME280;11544;42.020;23.094;2022-09-09T11:59:51;97140.22;;;28.14;52.13
22755;BME280;11544;42.020;23.094;2022-09-09T12:02:26;97139.38;;;28.21;50.31
22755;BME280;11544;42.020;23.094;2022-09-09T12:10:30;97127.31;;;28.58;51.63
22755;BME280;11544;42.020;23.094;2022-09-09T12:13:19;97119.44;;;28.57;52.88
22755;BME280;11544;42.020;23.094;2022-09-09T12:15:56;97120.94;;;28.43;52.65
22755;BME280;11544;42.020;23.094;2022-09-09T12:21:33;97128.97;;;28.26;53.21
22755;BME280;11544;42.020;23.094;2022-09-09T12:24:51;97125.94;;;28.13;54.02
22755;BME280;11544;42.020;23.094;2022-09-09T12:27:31;97110.22;;;28.10;53.03
22755;BME280;11544;42.020;23.094;2022-09-09T12:30:41;97113.41;;;28.22;53.60
22755;BME280;11544;42.020;23.094;2022-09-09T12:33:17;97103.34;;;28.32;52.58
22755;BME280;11544;42.020;23.094;2022-09-09T12:35:44;97099.19;;;28.46;52.69
22755;BME280;11544;42.020;23.094;2022-09-09T12:38:18;97098.00;;;28.48;52.10
22755;BME280;11544;42.020;23.094;2022-09-09T12:40:55;97100.03;;;28.30;52.50
22755;BME280;11544;42.020;23.094;2022-09-09T12:43:23;97098.66;;;28.34;52.60
22755;BME280;11544;42.020;23.094;2022-09-09T12:45:51;97097.00;;;28.33;52.54
22755;BME280;11544;42.020;23.094;2022-09-09T12:48:27;97094.47;;;28.40;52.39
22755;BME280;11544;42.020;23.094;2022-09-09T12:50:55;97092.47;;;28.34;53.66
22755;BME280;11544;42.020;23.094;2022-09-09T12:53:28;97095.00;;;28.52;52.60
22755;BME280;11544;42.020;23.094;2022-09-09T12:56:06;97096.50;;;28.38;53.46
22755;BME280;11544;42.020;23.094;2022-09-09T12:58:36;97090.47;;;28.36;53.00
22755;BME280;11544;42.020;23.094;2022-09-09T13:01:05;97093.81;;;28.38;53.82
22755;BME280;11544;42.020;23.094;2022-09-09T13:03:32;97091.63;;;28.25;54.06
22755;BME280;11544;42.020;23.094;2022-09-09T13:06:11;97099.53;;;28.18;54.01
22755;BME280;11544;42.020;23.094;2022-09-09T13:08:37;97088.94;;;28.08;55.09
22755;BME280;11544;42.020;23.094;2022-09-09T13:11:07;97102.19;;;28.10;54.78
22755;BME280;11544;42.020;23.094;2022-09-09T13:13:38;97097.66;;;28.02;55.00
22755;BME280;11544;42.020;23.094;2022-09-09T13:16:07;97097.47;;;28.04;55.52
22755;BME280;11544;42.020;23.094;2022-09-09T13:18:43;97099.84;;;27.91;55.39
22755;BME280;11544;42.020;23.094;2022-09-09T13:21:09;97104.50;;;27.89;55.98
22755;BME280;11544;42.020;23.094;2022-09-09T13:23:36;97103.69;;;27.88;56.44
22755;BME280;11544;42.020;23.094;2022-09-09T13:26:20;97109.34;;;27.85;57.03
22755;BME280;11544;42.020;23.094;2022-09-09T13:28:50;97104.63;;;27.79;56.58
22755;BME280;11544;42.020;23.094;2022-09-09T13:31:30;97111.31;;;27.75;57.77
22755;BME280;11544;42.020;23.094;2022-09-09T13:33:58;97110.94;;;27.45;58.80
22755;BME280;11544;42.020;23.094;2022-09-09T13:36:32;97115.53;;;27.27;59.74
22755;BME280;11544;42.020;23.094;2022-09-09T13:39:00;97121.81;;;27.17;60.77
22755;BME280;11544;42.020;23.094;2022-09-09T13:41:35;97102.63;;;26.88;61.70
22755;BME280;11544;42.020;23.094;2022-09-09T13:44:02;97088.22;;;26.80;61.16
22755;BME280;11544;42.020;23.094;2022-09-09T13:46:39;97084.38;;;26.83;60.87
22755;BME280;11544;42.020;23.094;2022-09-09T13:51:46;97090.47;;;26.93;60.77
22755;BME280;11544;42.020;23.094;2022-09-09T13:54:14;97078.75;;;26.94;61.79
22755;BME280;11544;42.020;23.094;2022-09-09T13:56:41;97078.91;;;26.93;60.13
22755;BME280;11544;42.020;23.094;2022-09-09T13:59:13;97092.97;;;26.95;61.76
22755;BME280;11544;42.020;23.094;2022-09-09T14:01:39;97078.06;;;26.92;59.97
22755;BME280;11544;42.020;23.094;2022-09-09T14:04:05;97065.22;;;26.96;60.04
22755;BME280;11544;42.020;23.094;2022-09-09T14:06:32;97072.31;;;27.13;59.99
22755;BME280;11544;42.020;23.094;2022-09-09T14:08:58;97065.44;;;27.11;58.27
22755;BME280;11544;42.020;23.094;2022-09-09T14:11:24;97058.16;;;27.21;58.35
22755;BME280;11544;42.020;23.094;2022-09-09T14:13:49;97055.28;;;27.14;58.31
22755;BME280;11544;42.020;23.094;2022-09-09T14:16:16;97057.06;;;27.06;59.05
22755;BME280;11544;42.020;23.094;2022-09-09T14:18:43;97051.25;;;27.10;58.67
22755;BME280;11544;42.020;23.094;2022-09-09T14:21:09;97037.75;;;27.20;59.22
22755;BME280;11544;42.020;23.094;2022-09-09T14:23:36;97037.28;;;27.24;58.53
22755;BME280;11544;42.020;23.094;2022-09-09T14:26:04;97039.22;;;27.14;59.69
22755;BME280;11544;42.020;23.094;2022-09-09T14:28:30;97041.78;;;27.24;60.47
22755;BME280;11544;42.020;23.094;2022-09-09T14:30:59;97024.41;;;27.44;58.48
22755;BME280;11544;42.020;23.094;2022-09-09T14:33:26;97038.34;;;27.64;58.16
22755;BME280;11544;42.020;23.094;2022-09-09T14:36:01;97027.50;;;28.07;57.00
22755;BME280;11544;42.020;23.094;2022-09-09T14:38:32;97032.00;;;28.23;55.73
22755;BME280;11544;42.020;23.094;2022-09-09T14:40:59;97027.97;;;28.27;56.27
22755;BME280;11544;42.020;23.094;2022-09-09T14:43:27;97020.94;;;28.34;54.98
22755;BME280;11544;42.020;23.094;2022-09-09T14:45:53;97029.66;;;28.20;54.64
22755;BME280;11544;42.020;23.094;2022-09-09T14:48:19;97018.94;;;28.20;54.88
22755;BME280;11544;42.020;23.094;2022-09-09T14:50:44;97015.09;;;28.31;55.13
22755;BME280;11544;42.020;23.094;2022-09-09T14:53:10;97018.09;;;28.27;56.01
22755;BME280;11544;42.020;23.094;2022-09-09T14:55:36;97005.72;;;28.10;55.03
22755;BME280;11544;42.020;23.094;2022-09-09T14:58:03;97013.28;;;27.98;55.26
22755;BME280;11544;42.020;23.094;2022-09-09T15:00:29;97012.63;;;27.88;55.12
22755;BME280;11544;42.020;23.094;2022-09-09T15:02:55;97008.22;;;27.79;56.20
22755;BME280;11544;42.020;23.094;2022-09-09T15:05:21;97020.63;;;27.72;56.67